createdAt,value
2023-05-19T00:00:15.337Z,91769.66
2023-05-19T00:03:22.606Z,91762.94
2023-05-19T00:06:27.930Z,91758.34
2023-05-19T00:09:32.044Z,91748.44
2023-05-19T00:12:35.757Z,91734.41
2023-05-19T00:15:39.097Z,91737.59
2023-05-19T00:18:42.631Z,91739.88
2023-05-19T00:21:45.692Z,91734.00
2023-05-19T00:24:49.704Z,91734.94
2023-05-19T00:27:52.697Z,91744.63
2023-05-19T00:30:57.139Z,91740.41
2023-05-19T00:34:00.534Z,91735.88
2023-05-19T00:37:05.239Z,91732.63
2023-05-19T00:40:09.413Z,91728.63
2023-05-19T00:43:13.580Z,91725.81
2023-05-19T00:46:17.247Z,91711.06
2023-05-19T00:49:21.755Z,91709.41
2023-05-19T00:52:26.715Z,91711.94
2023-05-19T00:55:32.740Z,91711.94
2023-05-19T00:58:36.914Z,91712.97
2023-05-19T01:01:41.174Z,91708.75
2023-05-19T01:04:45.961Z,91712.41
2023-05-19T01:07:54.588Z,91713.44
2023-05-19T01:10:58.186Z,91714.97
2023-05-19T01:14:02.328Z,91722.34
2023-05-19T01:17:15.620Z,91726.88
2023-05-19T01:20:33.201Z,91733.13
2023-05-19T01:23:57.638Z,91723.91
2023-05-19T01:27:39.547Z,91737.97
2023-05-19T01:30:45.577Z,91728.84
2023-05-19T01:33:50.897Z,91732.97
2023-05-19T01:36:56.553Z,91731.00
2023-05-19T01:39:59.824Z,91732.13
2023-05-19T01:43:03.829Z,91735.88
2023-05-19T01:46:08.513Z,91728.31
2023-05-19T01:49:12.335Z,91725.47
2023-05-19T01:52:16.558Z,91726.16
2023-05-19T01:55:21.767Z,91709.00
2023-05-19T01:58:48.023Z,91713.47
2023-05-19T02:01:57.997Z,91713.13
2023-05-19T02:05:15.301Z,91718.13
2023-05-19T02:08:31.411Z,91725.25
2023-05-19T02:11:38.863Z,91731.41
2023-05-19T02:14:59.197Z,91726.59
2023-05-19T02:18:05.452Z,91763.66
2023-05-19T02:21:13.740Z,91763.75
2023-05-19T02:24:17.647Z,91766.66
2023-05-19T02:27:20.625Z,91768.88
2023-05-19T02:30:23.748Z,91769.91
2023-05-19T02:33:28.149Z,91773.97
2023-05-19T02:36:35.828Z,91784.19
2023-05-19T02:39:38.802Z,91792.56
2023-05-19T02:42:42.039Z,91777.47
2023-05-19T02:45:45.822Z,91790.09
2023-05-19T02:48:49.020Z,91810.06
2023-05-19T02:51:52.752Z,91808.41
2023-05-19T02:54:56.307Z,91808.19
2023-05-19T02:57:59.546Z,91815.56
2023-05-19T03:01:03.171Z,91811.34
2023-05-19T03:04:06.522Z,91822.97
2023-05-19T03:07:10.886Z,91820.50
2023-05-19T03:10:15.156Z,91812.78
2023-05-19T03:13:18.813Z,91816.09
2023-05-19T03:16:22.729Z,91824.09
2023-05-19T03:19:27.560Z,91819.19
2023-05-19T03:22:34.186Z,91813.47
2023-05-19T03:25:38.272Z,91805.78
2023-05-19T03:28:41.301Z,91813.28
2023-05-19T03:31:44.424Z,91813.22
2023-05-19T03:34:49.305Z,91814.38
2023-05-19T03:37:52.425Z,91817.59
2023-05-19T03:40:58.086Z,91806.91
2023-05-19T03:44:02.446Z,91801.25
2023-05-19T03:47:06.137Z,91807.00
2023-05-19T03:50:24.472Z,91803.09
2023-05-19T03:53:31.541Z,91805.03
2023-05-19T03:56:35.327Z,91800.59
2023-05-19T03:59:38.440Z,91797.31
2023-05-19T04:02:42.136Z,91793.44
2023-05-19T04:05:46.232Z,91783.47
2023-05-19T04:08:49.538Z,91778.91
2023-05-19T04:11:52.757Z,91769.00
2023-05-19T04:14:56.147Z,91769.00
2023-05-19T04:18:00.937Z,91750.16
2023-05-19T04:21:04.457Z,91759.13
2023-05-19T04:24:07.738Z,91760.41
2023-05-19T04:27:13.189Z,91750.16
2023-05-19T04:30:22.840Z,91756.78
2023-05-19T04:33:26.621Z,91765.22
2023-05-19T04:36:29.584Z,91747.47
2023-05-19T04:39:33.104Z,91752.66
2023-05-19T04:42:36.730Z,91753.53
2023-05-19T04:45:43.426Z,91750.22
2023-05-19T04:48:48.228Z,91753.22
2023-05-19T04:51:55.577Z,91767.78
2023-05-19T04:55:04.640Z,91755.81
2023-05-19T04:58:08.667Z,91761.88
2023-05-19T05:01:14.434Z,91759.97
2023-05-19T05:04:19.108Z,91768.94
2023-05-19T05:07:23.587Z,91766.06
2023-05-19T05:10:29.256Z,91764.34
2023-05-19T05:13:33.300Z,91766.03
2023-05-19T05:16:38.021Z,91775.16
2023-05-19T05:19:44.441Z,91763.56
2023-05-19T05:22:49.124Z,91771.16
2023-05-19T05:25:53.144Z,91754.44
2023-05-19T05:28:58.653Z,91766.22
2023-05-19T05:32:01.895Z,91778.69
2023-05-19T05:35:06.077Z,91786.28
2023-05-19T05:38:11.988Z,91780.53
2023-05-19T05:41:17.189Z,91799.53
2023-05-19T05:44:22.847Z,91790.31
2023-05-19T05:47:27.660Z,91793.13
2023-05-19T05:50:31.912Z,91789.63
2023-05-19T05:53:41.675Z,91774.50
2023-05-19T05:56:46.496Z,91781.41
2023-05-19T05:59:51.716Z,91786.91
2023-05-19T06:02:55.599Z,91796.72
2023-05-19T06:05:59.942Z,91782.41
2023-05-19T06:09:03.883Z,91793.03
2023-05-19T06:12:09.033Z,91806.06
2023-05-19T06:15:17.663Z,91810.25
2023-05-19T06:18:24.938Z,91813.94
2023-05-19T06:21:29.187Z,91816.16
2023-05-19T06:24:33.680Z,91816.63
2023-05-19T06:27:38.031Z,91836.28
2023-05-19T06:30:42.242Z,91820.56
2023-05-19T06:34:12.949Z,91816.81
2023-05-19T06:37:20.586Z,91817.03
2023-05-19T06:40:24.755Z,91821.81
2023-05-19T06:43:31.136Z,91816.06
2023-05-19T06:46:38.985Z,91812.66
2023-05-19T06:49:43.758Z,91792.69
2023-05-19T06:52:47.808Z,91797.91
2023-05-19T06:55:59.299Z,91807.66
2023-05-19T06:59:07.595Z,91818.88
2023-05-19T07:02:13.998Z,91820.28
2023-05-19T07:05:18.315Z,91822.78
2023-05-19T07:08:28.765Z,91834.59
2023-05-19T07:11:36.047Z,91832.78
2023-05-19T07:14:41.268Z,91832.78
2023-05-19T07:17:46.237Z,91830.31
2023-05-19T07:20:50.790Z,91834.59
2023-05-19T07:23:58.720Z,91836.84
2023-05-19T07:27:04.475Z,91846.50
2023-05-19T07:30:08.923Z,91838.38
2023-05-19T07:33:12.631Z,91839.97
2023-05-19T07:36:16.914Z,91834.91
2023-05-19T07:39:21.898Z,91834.28
2023-05-19T07:42:25.242Z,91832.47
2023-05-19T07:45:29.436Z,91835.31
2023-05-19T07:48:33.317Z,91825.34
2023-05-19T07:51:37.335Z,91819.00
2023-05-19T07:54:41.274Z,91845.13
2023-05-19T07:57:45.281Z,91845.72
2023-05-19T08:00:49.069Z,91857.78
2023-05-19T08:03:53.458Z,91861.91
2023-05-19T08:06:57.228Z,91867.03
2023-05-19T08:10:01.427Z,91864.59
2023-05-19T08:13:05.810Z,91868.78
2023-05-19T08:16:09.929Z,91868.00
2023-05-19T08:19:13.472Z,91873.97
2023-05-19T08:22:17.993Z,91870.69
2023-05-19T08:25:21.941Z,91877.06
2023-05-19T08:28:26.107Z,91888.06
2023-05-19T08:31:30.230Z,91904.28
2023-05-19T08:34:34.231Z,91917.59
2023-05-19T08:37:39.299Z,91918.38
2023-05-19T08:40:43.620Z,91917.09
2023-05-19T08:43:47.271Z,91920.25
2023-05-19T08:46:55.592Z,91939.78
2023-05-19T08:50:08.118Z,91937.19
2023-05-19T08:53:33.137Z,91945.25
2023-05-19T08:56:39.693Z,91952.06
2023-05-19T08:59:44.926Z,91953.53
2023-05-19T09:02:59.947Z,91950.34
2023-05-19T09:06:10.158Z,91955.75
2023-05-19T09:09:14.195Z,91945.13
2023-05-19T09:12:18.465Z,91968.53
2023-05-19T09:15:26.366Z,91968.63
2023-05-19T09:18:31.293Z,91992.78
2023-05-19T09:21:35.074Z,91970.06
2023-05-19T09:24:41.376Z,91982.69
2023-05-19T09:27:45.129Z,91976.59
2023-05-19T09:30:49.120Z,91987.25
2023-05-19T09:33:54.641Z,91988.72
2023-05-19T09:37:00.702Z,91995.41
2023-05-19T09:40:06.022Z,92013.47
2023-05-19T09:43:11.131Z,92013.47
2023-05-19T09:46:16.372Z,92020.84
2023-05-19T09:49:24.919Z,92020.84
2023-05-19T09:52:29.080Z,91999.59
2023-05-19T09:55:34.362Z,92013.09
2023-05-19T09:58:39.607Z,92019.09
2023-05-19T10:01:47.304Z,92007.78
2023-05-19T10:04:53.380Z,92026.63
2023-05-19T10:07:59.272Z,92033.38
2023-05-19T10:11:04.044Z,92021.34
2023-05-19T10:14:08.748Z,92048.72
2023-05-19T10:17:14.142Z,92030.09
2023-05-19T10:20:18.954Z,92050.75
2023-05-19T10:23:36.776Z,92055.47
2023-05-19T10:26:44.831Z,92060.13
2023-05-19T10:29:51.648Z,92056.13
2023-05-19T10:32:57.869Z,92074.16
2023-05-19T10:36:14.376Z,92082.81
2023-05-19T10:39:30.707Z,92102.19
2023-05-19T10:43:02.798Z,92089.50
2023-05-19T10:46:07.450Z,92090.19
2023-05-19T10:49:10.680Z,92088.13
2023-05-19T10:52:26.799Z,92067.50
2023-05-19T10:56:03.268Z,92099.47
2023-05-19T10:59:07.689Z,92066.78
2023-05-19T11:02:12.282Z,92083.44
2023-05-19T11:05:37.218Z,92077.47
2023-05-19T11:08:41.186Z,92094.78
2023-05-19T11:11:55.731Z,92097.38
2023-05-19T11:15:00.074Z,92106.03
2023-05-19T11:18:05.679Z,92113.34
2023-05-19T11:21:09.234Z,92119.44
2023-05-19T11:24:40.896Z,92105.47
2023-05-19T11:27:47.606Z,92125.47
2023-05-19T11:30:52.791Z,92132.16
2023-05-19T11:33:56.630Z,92148.19
2023-05-19T11:37:00.858Z,92152.88
2023-05-19T11:40:08.553Z,92174.88
2023-05-19T11:43:12.761Z,92167.56
2023-05-19T11:46:17.027Z,92177.56
2023-05-19T11:49:22.319Z,92170.22
2023-05-19T11:52:26.332Z,92176.88
2023-05-19T11:55:30.697Z,92176.22
2023-05-19T11:58:34.597Z,92186.91
2023-05-19T12:01:39.166Z,92191.59
2023-05-19T12:04:43.270Z,92184.91
2023-05-19T12:07:50.680Z,92198.25
2023-05-19T12:10:54.691Z,92206.25
2023-05-19T12:14:02.687Z,92204.25
2023-05-19T12:17:17.152Z,92215.63
2023-05-19T12:20:21.346Z,92197.59
2023-05-19T12:23:25.504Z,92204.94
2023-05-19T12:26:29.228Z,92226.97
2023-05-19T12:29:33.320Z,92230.97
2023-05-19T12:32:37.395Z,92230.28
2023-05-19T12:35:42.988Z,92240.28
2023-05-19T12:38:48.679Z,92250.97
2023-05-19T12:41:52.372Z,92245.63
2023-05-19T12:44:56.131Z,92257.66
2023-05-19T12:48:00.696Z,92265.00
2023-05-19T12:51:06.181Z,92295.69
2023-05-19T12:54:11.429Z,92289.69
2023-05-19T12:57:17.680Z,92279.69
2023-05-19T13:00:26.016Z,92306.41
2023-05-19T13:03:29.824Z,92315.09
2023-05-19T13:06:34.639Z,92335.13
2023-05-19T13:09:39.028Z,92335.78
2023-05-19T13:19:58.583Z,92359.84
2023-05-19T13:23:03.392Z,92362.53
2023-05-19T13:26:09.026Z,92369.22
2023-05-19T13:29:13.292Z,92367.88
2023-05-19T13:32:18.484Z,92378.53
2023-05-19T13:35:22.911Z,92373.91
2023-05-19T13:38:28.386Z,92381.88
2023-05-19T13:41:33.173Z,92379.88
2023-05-19T13:44:37.761Z,92378.53
2023-05-19T13:47:43.593Z,92395.22
2023-05-19T13:50:48.191Z,92400.56
2023-05-19T13:53:52.374Z,92407.97
2023-05-19T13:56:56.691Z,92409.28
2023-05-19T14:00:03.468Z,92407.31
2023-05-19T14:03:20.547Z,92415.34
2023-05-19T14:06:24.738Z,92414.00
2023-05-19T14:09:29.874Z,92412.00
2023-05-19T14:12:44.810Z,92421.38
2023-05-19T14:15:56.573Z,92423.41
2023-05-19T14:19:00.753Z,92422.03
2023-05-19T14:22:05.338Z,92430.06
2023-05-19T14:25:10.048Z,92428.03
2023-05-19T14:28:14.431Z,92418.00
2023-05-19T14:31:19.050Z,92422.00
2023-05-19T14:34:23.826Z,92430.00
2023-05-19T14:37:29.655Z,92442.06
2023-05-19T14:40:35.214Z,92439.38
2023-05-19T14:43:40.352Z,92438.03
2023-05-19T14:46:44.805Z,92448.72
2023-05-19T14:49:49.529Z,92462.75
2023-05-19T14:52:54.357Z,92461.44
2023-05-19T14:55:58.603Z,92466.78
2023-05-19T14:59:05.757Z,92466.75
2023-05-19T15:02:09.885Z,92455.41
2023-05-19T15:05:14.407Z,92471.44
2023-05-19T15:08:18.844Z,92468.78
2023-05-19T15:11:24.062Z,92476.81
2023-05-19T15:14:30.485Z,92470.13
2023-05-19T15:17:35.967Z,92464.09
2023-05-19T15:20:42.035Z,92472.75
2023-05-19T15:23:46.841Z,92482.13
2023-05-19T15:26:50.489Z,92480.09
2023-05-19T15:29:54.859Z,92482.09
2023-05-19T15:32:59.004Z,92484.09
2023-05-19T15:36:03.237Z,92476.75
2023-05-19T15:39:07.940Z,92483.44
2023-05-19T15:42:12.499Z,92480.75
2023-05-19T15:45:16.790Z,92472.75
2023-05-19T15:48:21.668Z,92478.09
2023-05-19T15:51:26.477Z,92479.44
2023-05-19T15:54:34.465Z,92488.81
2023-05-19T15:57:37.895Z,92500.81
2023-05-19T16:00:42.215Z,92500.84
2023-05-19T16:03:46.929Z,92508.84
2023-05-19T16:06:51.441Z,92512.16
2023-05-19T16:09:57.002Z,92526.88
2023-05-19T16:13:01.893Z,92530.84
2023-05-19T16:16:06.692Z,92535.53
2023-05-19T16:19:11.481Z,92539.53
2023-05-19T16:22:15.675Z,92548.88
2023-05-19T16:25:20.832Z,92548.19
2023-05-19T16:28:25.522Z,92531.53
2023-05-19T16:31:30.111Z,92535.56
2023-05-19T16:34:34.405Z,92536.88
2023-05-19T16:37:39.157Z,92541.56
2023-05-19T16:40:47.960Z,92544.22
2023-05-19T16:43:51.826Z,92548.22
2023-05-19T16:46:56.025Z,92546.22
2023-05-19T16:50:00.540Z,92548.91
2023-05-19T16:53:06.835Z,92552.91
2023-05-19T16:56:11.144Z,92561.59
2023-05-19T16:59:18.098Z,92566.25
2023-05-19T17:02:22.079Z,92554.25
2023-05-19T17:05:25.500Z,92548.91
2023-05-19T17:08:29.024Z,92543.50
2023-05-19T17:11:35.115Z,92550.91
2023-05-19T17:14:38.589Z,92552.28
2023-05-19T17:17:44.374Z,92541.66
2023-05-19T17:20:49.596Z,92545.66
2023-05-19T17:23:53.155Z,92541.00
2023-05-19T17:26:56.899Z,92530.31
2023-05-19T17:30:01.267Z,92549.06
2023-05-19T17:33:06.175Z,92546.38
2023-05-19T17:36:10.537Z,92547.06
2023-05-19T17:39:15.355Z,92559.75
2023-05-19T17:42:19.922Z,92567.13
2023-05-19T17:45:24.793Z,92574.47
2023-05-19T17:48:29.443Z,92568.34
2023-05-19T17:51:34.270Z,92569.56
2023-05-19T17:54:38.876Z,92562.81
2023-05-19T17:57:48.596Z,92551.44
2023-05-19T18:00:52.385Z,92563.44
2023-05-19T18:04:00.002Z,92573.41
2023-05-19T18:07:04.874Z,92589.44
2023-05-19T18:10:10.281Z,92588.78
2023-05-19T18:13:14.910Z,92596.19
2023-05-19T18:16:19.488Z,92588.84
2023-05-19T18:19:24.164Z,92593.56
2023-05-19T18:22:28.958Z,92595.59
2023-05-19T18:25:33.447Z,92595.59
2023-05-19T18:28:38.261Z,92608.28
2023-05-19T18:31:42.287Z,92618.94
2023-05-19T18:34:46.938Z,92620.31
2023-05-19T18:37:50.750Z,92620.94
2023-05-19T18:40:56.790Z,92608.84
2023-05-19T18:44:01.512Z,92617.56
2023-05-19T18:47:06.337Z,92619.56
2023-05-19T18:50:12.656Z,92615.59
2023-05-19T18:53:16.544Z,92627.63
2023-05-19T18:56:27.774Z,92622.31
2023-05-19T18:59:32.863Z,92631.03
2023-05-19T19:02:38.576Z,92628.28
2023-05-19T19:05:45.323Z,92632.34
2023-05-19T19:08:48.635Z,92632.31
2023-05-19T19:11:53.092Z,92634.28
2023-05-19T19:14:57.214Z,92636.97
2023-05-19T19:18:02.333Z,92638.28
2023-05-19T19:21:06.388Z,92645.59
2023-05-19T19:24:11.458Z,92639.53
2023-05-19T19:27:18.309Z,92648.84
2023-05-19T19:30:22.895Z,92647.53
2023-05-19T19:33:27.152Z,92644.19
2023-05-19T19:36:33.013Z,92638.84
2023-05-19T19:39:37.152Z,92641.50
2023-05-19T19:42:43.133Z,92642.19
2023-05-19T19:45:47.084Z,92640.81
2023-05-19T19:48:51.665Z,92638.09
2023-05-19T19:51:55.634Z,92637.44
2023-05-19T19:54:59.657Z,92638.19
2023-05-19T19:58:03.656Z,92637.47
2023-05-19T20:01:08.908Z,92638.81
2023-05-19T20:04:12.966Z,92642.19
2023-05-19T20:07:20.632Z,92644.81
2023-05-19T20:10:24.430Z,92636.81
2023-05-19T20:13:30.602Z,92640.84
2023-05-19T20:16:35.481Z,92638.16
2023-05-19T20:19:39.578Z,92639.50
2023-05-19T20:22:46.482Z,92642.84
2023-05-19T20:26:06.733Z,92634.13
2023-05-19T20:29:14.676Z,92640.78
2023-05-19T20:32:18.900Z,92649.44
2023-05-19T20:35:23.104Z,92642.72
2023-05-19T20:38:27.116Z,92651.44
2023-05-19T20:41:31.042Z,92654.06
2023-05-19T20:44:34.808Z,92658.72
2023-05-19T20:47:39.010Z,92661.41
2023-05-19T20:50:42.983Z,92662.69
2023-05-19T20:53:47.000Z,92661.34
2023-05-19T20:56:50.834Z,92664.03
2023-05-19T20:59:54.712Z,92664.69
2023-05-19T21:02:58.817Z,92670.69
2023-05-19T21:06:02.633Z,92671.47
2023-05-19T21:09:07.633Z,92668.81
2023-05-19T21:12:11.226Z,92664.88
2023-05-19T21:15:15.757Z,92668.25
2023-05-19T21:18:19.514Z,92679.66
2023-05-19T21:21:23.148Z,92674.31
2023-05-19T21:24:27.181Z,92682.41
2023-05-19T21:27:33.163Z,92683.84
2023-05-19T21:30:36.973Z,92685.88
2023-05-19T21:33:40.825Z,92695.31
2023-05-19T21:36:44.637Z,92696.69
2023-05-19T21:39:49.343Z,92696.75
2023-05-19T21:42:52.672Z,92708.13
2023-05-19T21:45:56.028Z,92706.84
2023-05-19T21:48:59.831Z,92716.25
2023-05-19T21:52:03.766Z,92721.66
2023-05-19T21:55:08.534Z,92717.75
2023-05-19T21:58:12.624Z,92729.16
2023-05-19T22:01:16.659Z,92736.59
2023-05-19T22:04:22.145Z,92742.00
2023-05-19T22:07:27.433Z,92750.66
2023-05-19T22:10:31.606Z,92756.03
2023-05-19T22:13:41.659Z,92751.31
2023-05-19T22:16:45.416Z,92762.06
2023-05-19T22:19:48.437Z,92756.06
2023-05-19T22:22:52.061Z,92752.72
2023-05-19T22:25:55.163Z,92762.81
2023-05-19T22:28:58.351Z,92764.16
2023-05-19T22:32:02.153Z,92766.88
2023-05-19T22:35:07.435Z,92769.44
2023-05-19T22:38:12.204Z,92772.09
2023-05-19T22:41:16.332Z,92772.06
2023-05-19T22:44:20.241Z,92773.94
2023-05-19T22:47:24.577Z,92777.22
2023-05-19T22:50:28.534Z,92778.00
2023-05-19T22:53:32.634Z,92788.13
2023-05-19T22:56:36.339Z,92788.84
2023-05-19T22:59:40.596Z,92794.19
2023-05-19T23:02:43.767Z,92799.53
2023-05-19T23:05:47.735Z,92796.09
2023-05-19T23:09:02.450Z,92802.06
2023-05-19T23:12:05.794Z,92801.25
2023-05-19T23:15:13.174Z,92799.72
2023-05-19T23:18:16.967Z,92808.34
2023-05-19T23:21:20.542Z,92801.50
2023-05-19T23:24:24.728Z,92807.97
2023-05-19T23:27:27.959Z,92802.94
2023-05-19T23:30:33.866Z,92804.94
2023-05-19T23:33:37.636Z,92811.50
2023-05-19T23:36:41.848Z,92800.63
2023-05-19T23:39:45.020Z,92801.13
2023-05-19T23:42:48.516Z,92813.19
2023-05-19T23:45:52.249Z,92810.84
2023-05-19T23:48:56.203Z,92815.50
2023-05-19T23:52:00.067Z,92818.66
2023-05-19T23:55:04.440Z,92812.03
2023-05-19T23:58:08.189Z,92820.47
